Main page
Satellite images 15-day forecastsClimateMarine weather Cyclones Lightning AirportsFAQ Newsletter About
Weather : Europe Africa North America South America Asia Australia-Oceania Others
Languages Contact

San Fernando, Argentina

latitude: 34-27-11S, longitude: 058-35-23W, elevation: 3 m


METAR: SADF 230800Z 00000KT CAVOK 19/14 Q1015
TAF: SADF 222300Z 2300/2324 36010KT CAVOK TX30/2318Z TN15/2310Z BECMG 2314/2316UTC 09005KT SCT030

Time: 05:37 (08:37 UTC)

Current weather observation

The report was made 37 minutes ago, at 08:00 UTC
Wind calm
Temperature 19°C
Humidity 73%
Pressure 1015 hPa
Visibility 10 km or more
no clouds below 1500 m and no cumulonimbus

Change units

Forecast

The report was made 9 hours and 37 minutes ago, at 23:00 UTC
Forecast valid from 23 at 00 UTC to 23 at 24 UTC
Wind 10 kt from the North
Visibility 10 km or more
no clouds below 1500 m and no cumulonimbus
Becoming
from 23 at 14 UTC to 23 at 16 UTC
Wind 5 kt from the East
Scattered clouds at a height of 3000 ft
The information on this site is subject to a disclaimer
Weather : Europe Africa North America South America Asia Australia-Oceania Others
Satellite images 15-day forecastsClimateMarine weather Cyclones Lightning AirportsFAQ Languages Contact Newsletter About